sensor_id;sensor_type;location;lat;lon;timestamp;temperature;humidity
19389;DHT22;9830;41.876;23.474;2023-03-21T00:00:54;6.70;99.90
19389;DHT22;9830;41.876;23.474;2023-03-21T00:03:20;6.70;99.90
19389;DHT22;9830;41.876;23.474;2023-03-21T00:05:46;6.70;99.90
19389;DHT22;9830;41.876;23.474;2023-03-21T00:08:16;6.80;99.90
19389;DHT22;9830;41.876;23.474;2023-03-21T00:10:42;6.70;99.90
19389;DHT22;9830;41.876;23.474;2023-03-21T00:13:08;6.70;99.90
19389;DHT22;9830;41.876;23.474;2023-03-21T00:15:37;6.60;99.90
19389;DHT22;9830;41.876;23.474;2023-03-21T00:18:15;6.50;99.90
19389;DHT22;9830;41.876;23.474;2023-03-21T00:20:40;6.50;99.90
19389;DHT22;9830;41.876;23.474;2023-03-21T00:23:06;6.40;99.90
19389;DHT22;9830;41.876;23.474;2023-03-21T00:25:32;6.20;99.90
19389;DHT22;9830;41.876;23.474;2023-03-21T00:27:58;6.10;99.90
19389;DHT22;9830;41.876;23.474;2023-03-21T00:30:24;6.10;99.90
19389;DHT22;9830;41.876;23.474;2023-03-21T00:32:49;6.00;99.90
19389;DHT22;9830;41.876;23.474;2023-03-21T00:35:15;5.90;99.90
19389;DHT22;9830;41.876;23.474;2023-03-21T00:37:41;5.90;99.90
19389;DHT22;9830;41.876;23.474;2023-03-21T00:40:08;5.80;99.90
19389;DHT22;9830;41.876;23.474;2023-03-21T00:42:34;5.70;99.90
19389;DHT22;9830;41.876;23.474;2023-03-21T00:45:01;5.70;99.90
19389;DHT22;9830;41.876;23.474;2023-03-21T00:47:27;5.60;99.90
19389;DHT22;9830;41.876;23.474;2023-03-21T00:49:52;5.60;99.90
19389;DHT22;9830;41.876;23.474;2023-03-21T00:52:18;5.40;99.90
19389;DHT22;9830;41.876;23.474;2023-03-21T00:54:44;5.40;99.90
19389;DHT22;9830;41.876;23.474;2023-03-21T00:57:10;5.40;99.90
19389;DHT22;9830;41.876;23.474;2023-03-21T00:59:35;5.40;99.90
19389;DHT22;9830;41.876;23.474;2023-03-21T01:02:01;5.30;99.90
19389;DHT22;9830;41.876;23.474;2023-03-21T01:04:32;5.20;99.90
19389;DHT22;9830;41.876;23.474;2023-03-21T01:06:59;5.10;99.90
19389;DHT22;9830;41.876;23.474;2023-03-21T01:09:25;5.10;99.90
19389;DHT22;9830;41.876;23.474;2023-03-21T01:11:52;5.20;99.90
19389;DHT22;9830;41.876;23.474;2023-03-21T01:14:20;5.00;99.90
19389;DHT22;9830;41.876;23.474;2023-03-21T01:16:46;5.00;99.90
19389;DHT22;9830;41.876;23.474;2023-03-21T01:19:15;5.00;99.90
19389;DHT22;9830;41.876;23.474;2023-03-21T01:21:42;5.00;99.90
19389;DHT22;9830;41.876;23.474;2023-03-21T01:24:08;4.90;99.90
19389;DHT22;9830;41.876;23.474;2023-03-21T01:26:34;4.90;99.90
19389;DHT22;9830;41.876;23.474;2023-03-21T01:29:02;4.90;99.90
19389;DHT22;9830;41.876;23.474;2023-03-21T01:31:27;4.90;99.90
19389;DHT22;9830;41.876;23.474;2023-03-21T01:33:53;5.00;99.90
19389;DHT22;9830;41.876;23.474;2023-03-21T01:36:21;4.90;99.90
19389;DHT22;9830;41.876;23.474;2023-03-21T01:38:47;4.90;99.90
19389;DHT22;9830;41.876;23.474;2023-03-21T01:43:56;4.80;99.90
19389;DHT22;9830;41.876;23.474;2023-03-21T01:51:38;4.80;99.90
19389;DHT22;9830;41.876;23.474;2023-03-21T01:54:09;4.80;99.90
19389;DHT22;9830;41.876;23.474;2023-03-21T01:56:38;4.80;99.90
19389;DHT22;9830;41.876;23.474;2023-03-21T01:59:10;4.80;99.90
19389;DHT22;9830;41.876;23.474;2023-03-21T02:01:36;4.70;99.90
19389;DHT22;9830;41.876;23.474;2023-03-21T02:04:03;4.80;99.90
19389;DHT22;9830;41.876;23.474;2023-03-21T02:06:59;4.80;99.90
19389;DHT22;9830;41.876;23.474;2023-03-21T02:09:27;4.80;99.90
19389;DHT22;9830;41.876;23.474;2023-03-21T02:11:56;4.70;99.90
19389;DHT22;9830;41.876;23.474;2023-03-21T02:14:22;4.70;99.90
19389;DHT22;9830;41.876;23.474;2023-03-21T02:19:53;4.40;99.90
19389;DHT22;9830;41.876;23.474;2023-03-21T02:22:50;4.20;99.90
19389;DHT22;9830;41.876;23.474;2023-03-21T02:27:56;4.10;99.90
19389;DHT22;9830;41.876;23.474;2023-03-21T02:30:47;4.00;99.90
19389;DHT22;9830;41.876;23.474;2023-03-21T02:39:13;3.60;99.90
19389;DHT22;9830;41.876;23.474;2023-03-21T02:47:12;3.50;99.90
19389;DHT22;9830;41.876;23.474;2023-03-21T02:49:55;3.50;99.90
19389;DHT22;9830;41.876;23.474;2023-03-21T02:52:28;3.40;99.90
19389;DHT22;9830;41.876;23.474;2023-03-21T02:54:56;3.40;99.90
19389;DHT22;9830;41.876;23.474;2023-03-21T02:57:23;3.30;99.90
19389;DHT22;9830;41.876;23.474;2023-03-21T02:59:49;3.30;99.90
19389;DHT22;9830;41.876;23.474;2023-03-21T03:02:20;3.30;99.90
19389;DHT22;9830;41.876;23.474;2023-03-21T03:04:47;3.40;99.90
19389;DHT22;9830;41.876;23.474;2023-03-21T03:07:30;3.40;99.90
19389;DHT22;9830;41.876;23.474;2023-03-21T03:10:02;3.30;99.90
19389;DHT22;9830;41.876;23.474;2023-03-21T03:12:59;3.30;99.90
19389;DHT22;9830;41.876;23.474;2023-03-21T03:16:00;3.20;99.90
19389;DHT22;9830;41.876;23.474;2023-03-21T03:23:49;3.10;99.90
19389;DHT22;9830;41.876;23.474;2023-03-21T03:26:20;3.20;99.90
19389;DHT22;9830;41.876;23.474;2023-03-21T03:28:51;3.20;99.90
19389;DHT22;9830;41.876;23.474;2023-03-21T03:31:22;3.20;99.90
19389;DHT22;9830;41.876;23.474;2023-03-21T03:33:56;3.20;99.90
19389;DHT22;9830;41.876;23.474;2023-03-21T03:36:29;3.20;99.90
19389;DHT22;9830;41.876;23.474;2023-03-21T03:39:02;3.20;99.90
19389;DHT22;9830;41.876;23.474;2023-03-21T03:41:29;3.20;99.90
19389;DHT22;9830;41.876;23.474;2023-03-21T03:43:58;3.20;99.90
19389;DHT22;9830;41.876;23.474;2023-03-21T03:49:10;3.20;99.90
19389;DHT22;9830;41.876;23.474;2023-03-21T03:51:58;3.10;99.90
19389;DHT22;9830;41.876;23.474;2023-03-21T03:54:39;3.10;99.90
19389;DHT22;9830;41.876;23.474;2023-03-21T03:57:06;3.10;99.90
19389;DHT22;9830;41.876;23.474;2023-03-21T03:59:36;3.20;99.90
19389;DHT22;9830;41.876;23.474;2023-03-21T04:02:02;3.20;99.90
19389;DHT22;9830;41.876;23.474;2023-03-21T04:04:28;3.20;99.90
19389;DHT22;9830;41.876;23.474;2023-03-21T04:06:56;3.30;99.90
19389;DHT22;9830;41.876;23.474;2023-03-21T04:09:24;3.40;99.90
19389;DHT22;9830;41.876;23.474;2023-03-21T04:11:53;3.40;99.90
19389;DHT22;9830;41.876;23.474;2023-03-21T04:14:19;3.40;99.90
19389;DHT22;9830;41.876;23.474;2023-03-21T04:16:45;3.40;99.90
19389;DHT22;9830;41.876;23.474;2023-03-21T04:19:11;3.40;99.90
19389;DHT22;9830;41.876;23.474;2023-03-21T04:21:36;3.40;99.90
19389;DHT22;9830;41.876;23.474;2023-03-21T04:24:02;3.40;99.90
19389;DHT22;9830;41.876;23.474;2023-03-21T04:26:29;3.40;99.90
19389;DHT22;9830;41.876;23.474;2023-03-21T04:28:58;3.40;99.90
19389;DHT22;9830;41.876;23.474;2023-03-21T04:31:31;3.60;99.90
19389;DHT22;9830;41.876;23.474;2023-03-21T04:34:00;3.70;99.90
19389;DHT22;9830;41.876;23.474;2023-03-21T04:36:27;3.80;99.90
19389;DHT22;9830;41.876;23.474;2023-03-21T04:38:58;3.90;99.90
19389;DHT22;9830;41.876;23.474;2023-03-21T04:41:28;3.90;99.90
19389;DHT22;9830;41.876;23.474;2023-03-21T04:43:54;3.80;99.90
19389;DHT22;9830;41.876;23.474;2023-03-21T04:46:21;3.70;99.90
19389;DHT22;9830;41.876;23.474;2023-03-21T04:48:46;3.70;99.90
19389;DHT22;9830;41.876;23.474;2023-03-21T04:51:14;3.70;99.90
19389;DHT22;9830;41.876;23.474;2023-03-21T04:53:39;3.80;99.90
19389;DHT22;9830;41.876;23.474;2023-03-21T04:56:10;3.80;99.90
19389;DHT22;9830;41.876;23.474;2023-03-21T04:58:36;3.90;99.90
19389;DHT22;9830;41.876;23.474;2023-03-21T05:01:01;4.00;99.90
19389;DHT22;9830;41.876;23.474;2023-03-21T05:03:30;3.90;99.90
19389;DHT22;9830;41.876;23.474;2023-03-21T05:06:02;3.90;99.90
19389;DHT22;9830;41.876;23.474;2023-03-21T05:08:27;3.90;99.90
19389;DHT22;9830;41.876;23.474;2023-03-21T05:10:53;4.00;99.90
19389;DHT22;9830;41.876;23.474;2023-03-21T05:13:19;4.00;99.90
19389;DHT22;9830;41.876;23.474;2023-03-21T05:15:45;4.00;99.90
19389;DHT22;9830;41.876;23.474;2023-03-21T05:18:10;4.30;99.90
19389;DHT22;9830;41.876;23.474;2023-03-21T05:20:37;4.50;99.90
19389;DHT22;9830;41.876;23.474;2023-03-21T05:23:08;4.60;99.90
19389;DHT22;9830;41.876;23.474;2023-03-21T05:25:36;4.80;99.90
19389;DHT22;9830;41.876;23.474;2023-03-21T05:28:03;4.90;99.90
19389;DHT22;9830;41.876;23.474;2023-03-21T05:30:29;5.00;99.90
19389;DHT22;9830;41.876;23.474;2023-03-21T05:32:55;5.70;99.90
19389;DHT22;9830;41.876;23.474;2023-03-21T05:35:21;5.90;99.90
19389;DHT22;9830;41.876;23.474;2023-03-21T05:37:47;6.00;99.90
19389;DHT22;9830;41.876;23.474;2023-03-21T05:40:13;6.10;99.90
19389;DHT22;9830;41.876;23.474;2023-03-21T05:42:39;6.20;99.90
19389;DHT22;9830;41.876;23.474;2023-03-21T05:45:05;6.30;99.90
19389;DHT22;9830;41.876;23.474;2023-03-21T05:47:31;6.60;99.90
19389;DHT22;9830;41.876;23.474;2023-03-21T05:49:57;6.60;99.90
19389;DHT22;9830;41.876;23.474;2023-03-21T05:52:22;6.70;99.90
19389;DHT22;9830;41.876;23.474;2023-03-21T05:54:48;7.00;99.90
19389;DHT22;9830;41.876;23.474;2023-03-21T05:57:14;7.10;99.90
19389;DHT22;9830;41.876;23.474;2023-03-21T05:59:40;7.40;99.90
19389;DHT22;9830;41.876;23.474;2023-03-21T06:02:05;7.40;99.90
19389;DHT22;9830;41.876;23.474;2023-03-21T06:04:31;7.50;99.90
19389;DHT22;9830;41.876;23.474;2023-03-21T06:06:57;7.60;99.90
19389;DHT22;9830;41.876;23.474;2023-03-21T06:09:23;8.10;99.90
19389;DHT22;9830;41.876;23.474;2023-03-21T06:11:52;8.20;99.90
19389;DHT22;9830;41.876;23.474;2023-03-21T06:14:18;8.30;99.90
19389;DHT22;9830;41.876;23.474;2023-03-21T06:16:44;8.30;99.90
19389;DHT22;9830;41.876;23.474;2023-03-21T06:19:10;8.10;99.90
19389;DHT22;9830;41.876;23.474;2023-03-21T06:21:36;8.40;99.90
19389;DHT22;9830;41.876;23.474;2023-03-21T06:24:01;8.60;99.90
19389;DHT22;9830;41.876;23.474;2023-03-21T06:26:28;8.30;99.90
19389;DHT22;9830;41.876;23.474;2023-03-21T06:28:54;8.00;99.90
19389;DHT22;9830;41.876;23.474;2023-03-21T06:31:20;7.80;99.90
19389;DHT22;9830;41.876;23.474;2023-03-21T06:33:48;8.00;99.90
19389;DHT22;9830;41.876;23.474;2023-03-21T06:36:14;8.30;99.90
19389;DHT22;9830;41.876;23.474;2023-03-21T06:38:40;8.00;99.90
19389;DHT22;9830;41.876;23.474;2023-03-21T06:41:06;8.10;99.90
19389;DHT22;9830;41.876;23.474;2023-03-21T06:43:33;7.90;99.90
19389;DHT22;9830;41.876;23.474;2023-03-21T06:45:59;8.20;99.90
19389;DHT22;9830;41.876;23.474;2023-03-21T06:48:26;8.40;99.90
19389;DHT22;9830;41.876;23.474;2023-03-21T06:50:55;8.50;99.90
19389;DHT22;9830;41.876;23.474;2023-03-21T06:53:21;8.70;99.90
19389;DHT22;9830;41.876;23.474;2023-03-21T06:55:55;9.00;99.90
19389;DHT22;9830;41.876;23.474;2023-03-21T06:58:22;9.90;99.90
19389;DHT22;9830;41.876;23.474;2023-03-21T07:00:48;10.20;97.80
19389;DHT22;9830;41.876;23.474;2023-03-21T07:03:16;10.60;96.80
19389;DHT22;9830;41.876;23.474;2023-03-21T07:05:43;11.30;93.00
19389;DHT22;9830;41.876;23.474;2023-03-21T07:08:09;11.50;92.70
19389;DHT22;9830;41.876;23.474;2023-03-21T07:10:43;11.20;90.90
19389;DHT22;9830;41.876;23.474;2023-03-21T07:13:09;11.10;92.50
19389;DHT22;9830;41.876;23.474;2023-03-21T07:15:35;11.50;91.00
19389;DHT22;9830;41.876;23.474;2023-03-21T07:18:08;11.80;90.30
19389;DHT22;9830;41.876;23.474;2023-03-21T07:20:35;12.20;86.90
19389;DHT22;9830;41.876;23.474;2023-03-21T07:23:03;12.30;86.40
19389;DHT22;9830;41.876;23.474;2023-03-21T07:25:29;13.10;82.00
19389;DHT22;9830;41.876;23.474;2023-03-21T07:27:55;14.10;75.10
19389;DHT22;9830;41.876;23.474;2023-03-21T07:30:21;15.90;67.40
19389;DHT22;9830;41.876;23.474;2023-03-21T07:32:46;16.90;59.60
19389;DHT22;9830;41.876;23.474;2023-03-21T07:35:15;17.10;55.00
19389;DHT22;9830;41.876;23.474;2023-03-21T07:37:41;17.00;55.70
19389;DHT22;9830;41.876;23.474;2023-03-21T07:40:08;16.50;55.20
19389;DHT22;9830;41.876;23.474;2023-03-21T07:42:40;17.10;53.00
19389;DHT22;9830;41.876;23.474;2023-03-21T07:45:07;16.10;55.80
19389;DHT22;9830;41.876;23.474;2023-03-21T07:47:34;16.20;56.00
19389;DHT22;9830;41.876;23.474;2023-03-21T07:50:00;15.90;56.90
19389;DHT22;9830;41.876;23.474;2023-03-21T07:52:27;16.00;56.40
19389;DHT22;9830;41.876;23.474;2023-03-21T07:54:53;15.50;57.30
19389;DHT22;9830;41.876;23.474;2023-03-21T07:57:22;15.60;57.90
19389;DHT22;9830;41.876;23.474;2023-03-21T07:59:47;15.40;58.20
19389;DHT22;9830;41.876;23.474;2023-03-21T08:02:17;15.40;57.60
19389;DHT22;9830;41.876;23.474;2023-03-21T08:04:43;15.20;57.70
19389;DHT22;9830;41.876;23.474;2023-03-21T08:07:09;15.40;57.60
19389;DHT22;9830;41.876;23.474;2023-03-21T08:09:35;15.50;58.40
19389;DHT22;9830;41.876;23.474;2023-03-21T08:12:03;16.40;55.20
19389;DHT22;9830;41.876;23.474;2023-03-21T08:14:29;16.30;52.80
19389;DHT22;9830;41.876;23.474;2023-03-21T08:16:55;16.20;53.70
19389;DHT22;9830;41.876;23.474;2023-03-21T08:19:21;17.20;51.30
19389;DHT22;9830;41.876;23.474;2023-03-21T08:21:48;17.40;51.70
19389;DHT22;9830;41.876;23.474;2023-03-21T08:24:14;18.20;50.40
19389;DHT22;9830;41.876;23.474;2023-03-21T08:26:42;18.80;49.20
19389;DHT22;9830;41.876;23.474;2023-03-21T08:29:12;18.70;47.40
19389;DHT22;9830;41.876;23.474;2023-03-21T08:31:39;17.50;50.20
19389;DHT22;9830;41.876;23.474;2023-03-21T08:34:05;16.20;53.90
19389;DHT22;9830;41.876;23.474;2023-03-21T08:36:40;15.60;57.40
19389;DHT22;9830;41.876;23.474;2023-03-21T08:39:07;15.30;59.40
19389;DHT22;9830;41.876;23.474;2023-03-21T08:41:36;15.00;59.70
19389;DHT22;9830;41.876;23.474;2023-03-21T08:44:05;14.40;63.30
19389;DHT22;9830;41.876;23.474;2023-03-21T08:46:32;14.40;59.10
19389;DHT22;9830;41.876;23.474;2023-03-21T08:48:57;14.60;57.80
19389;DHT22;9830;41.876;23.474;2023-03-21T08:51:23;14.80;58.40
19389;DHT22;9830;41.876;23.474;2023-03-21T08:53:49;15.90;56.40
19389;DHT22;9830;41.876;23.474;2023-03-21T08:56:16;16.70;50.90
19389;DHT22;9830;41.876;23.474;2023-03-21T08:58:42;16.70;49.30
19389;DHT22;9830;41.876;23.474;2023-03-21T09:01:09;16.40;50.30
19389;DHT22;9830;41.876;23.474;2023-03-21T09:03:39;16.30;50.60
19389;DHT22;9830;41.876;23.474;2023-03-21T09:06:09;16.60;48.40
19389;DHT22;9830;41.876;23.474;2023-03-21T09:08:37;17.30;47.20
19389;DHT22;9830;41.876;23.474;2023-03-21T09:11:03;16.90;47.90
19389;DHT22;9830;41.876;23.474;2023-03-21T09:13:32;16.90;48.30
19389;DHT22;9830;41.876;23.474;2023-03-21T09:15:58;17.50;47.00
19389;DHT22;9830;41.876;23.474;2023-03-21T09:18:27;17.60;47.70
19389;DHT22;9830;41.876;23.474;2023-03-21T09:21:14;18.10;46.20
19389;DHT22;9830;41.876;23.474;2023-03-21T09:23:41;19.00;44.50
19389;DHT22;9830;41.876;23.474;2023-03-21T09:26:08;19.20;43.70
19389;DHT22;9830;41.876;23.474;2023-03-21T09:28:34;18.50;43.60
19389;DHT22;9830;41.876;23.474;2023-03-21T09:31:02;17.50;45.60
19389;DHT22;9830;41.876;23.474;2023-03-21T09:33:29;17.40;44.70
19389;DHT22;9830;41.876;23.474;2023-03-21T09:35:58;17.60;45.70
19389;DHT22;9830;41.876;23.474;2023-03-21T09:38:25;17.40;45.70
19389;DHT22;9830;41.876;23.474;2023-03-21T09:46:42;16.30;50.50
19389;DHT22;9830;41.876;23.474;2023-03-21T09:51:44;16.10;51.20
19389;DHT22;9830;41.876;23.474;2023-03-21T09:54:19;16.00;51.50
19389;DHT22;9830;41.876;23.474;2023-03-21T09:56:48;16.30;51.00
19389;DHT22;9830;41.876;23.474;2023-03-21T09:59:30;17.00;50.00
19389;DHT22;9830;41.876;23.474;2023-03-21T10:02:00;17.30;48.40
19389;DHT22;9830;41.876;23.474;2023-03-21T10:04:28;18.10;47.00
19389;DHT22;9830;41.876;23.474;2023-03-21T10:06:59;18.50;46.00
19389;DHT22;9830;41.876;23.474;2023-03-21T10:09:27;18.40;45.40
19389;DHT22;9830;41.876;23.474;2023-03-21T10:12:02;18.10;46.60
19389;DHT22;9830;41.876;23.474;2023-03-21T10:14:39;18.50;45.90
19389;DHT22;9830;41.876;23.474;2023-03-21T10:17:26;18.30;46.20
19389;DHT22;9830;41.876;23.474;2023-03-21T10:20:22;18.80;44.50
19389;DHT22;9830;41.876;23.474;2023-03-21T10:22:51;18.90;44.40
19389;DHT22;9830;41.876;23.474;2023-03-21T10:25:20;19.40;42.90
19389;DHT22;9830;41.876;23.474;2023-03-21T10:27:47;18.90;44.60
19389;DHT22;9830;41.876;23.474;2023-03-21T10:30:30;18.60;45.10
19389;DHT22;9830;41.876;23.474;2023-03-21T10:33:01;18.60;45.00
19389;DHT22;9830;41.876;23.474;2023-03-21T10:35:32;17.90;45.40
19389;DHT22;9830;41.876;23.474;2023-03-21T10:38:01;18.10;46.70
19389;DHT22;9830;41.876;23.474;2023-03-21T10:40:30;18.20;44.40
19389;DHT22;9830;41.876;23.474;2023-03-21T10:43:17;18.70;44.80
19389;DHT22;9830;41.876;23.474;2023-03-21T10:45:45;19.40;42.90
19389;DHT22;9830;41.876;23.474;2023-03-21T10:48:12;19.50;43.60
19389;DHT22;9830;41.876;23.474;2023-03-21T10:50:38;19.20;43.60
19389;DHT22;9830;41.876;23.474;2023-03-21T10:53:18;19.00;43.40
19389;DHT22;9830;41.876;23.474;2023-03-21T10:55:50;18.60;45.00
19389;DHT22;9830;41.876;23.474;2023-03-21T10:58:21;18.10;45.40
19389;DHT22;9830;41.876;23.474;2023-03-21T11:01:01;18.00;45.50
19389;DHT22;9830;41.876;23.474;2023-03-21T11:03:35;18.00;46.50
19389;DHT22;9830;41.876;23.474;2023-03-21T11:06:25;18.20;45.20
19389;DHT22;9830;41.876;23.474;2023-03-21T11:08:59;18.20;45.10
19389;DHT22;9830;41.876;23.474;2023-03-21T11:11:27;18.30;45.00
19389;DHT22;9830;41.876;23.474;2023-03-21T11:14:02;18.60;44.50
19389;DHT22;9830;41.876;23.474;2023-03-21T11:21:38;19.10;43.60
19389;DHT22;9830;41.876;23.474;2023-03-21T11:24:05;19.00;44.40
19389;DHT22;9830;41.876;23.474;2023-03-21T11:26:36;19.20;43.80
19389;DHT22;9830;41.876;23.474;2023-03-21T11:29:33;19.40;43.10
19389;DHT22;9830;41.876;23.474;2023-03-21T11:32:08;19.20;43.30
19389;DHT22;9830;41.876;23.474;2023-03-21T11:34:50;19.20;43.60
19389;DHT22;9830;41.876;23.474;2023-03-21T11:37:30;19.10;43.20
19389;DHT22;9830;41.876;23.474;2023-03-21T11:40:32;19.20;42.80
19389;DHT22;9830;41.876;23.474;2023-03-21T11:43:24;18.90;43.60
19389;DHT22;9830;41.876;23.474;2023-03-21T11:46:11;19.00;44.50
19389;DHT22;9830;41.876;23.474;2023-03-21T11:48:45;19.00;43.80
19389;DHT22;9830;41.876;23.474;2023-03-21T11:51:31;19.30;43.00
19389;DHT22;9830;41.876;23.474;2023-03-21T11:57:25;19.40;42.10
19389;DHT22;9830;41.876;23.474;2023-03-21T12:00:20;18.50;43.20
19389;DHT22;9830;41.876;23.474;2023-03-21T12:05:59;18.00;44.70
19389;DHT22;9830;41.876;23.474;2023-03-21T12:11:18;17.60;46.20
19389;DHT22;9830;41.876;23.474;2023-03-21T12:14:02;18.00;45.40
19389;DHT22;9830;41.876;23.474;2023-03-21T12:17:04;18.00;45.60
19389;DHT22;9830;41.876;23.474;2023-03-21T12:22:43;17.30;46.20
19389;DHT22;9830;41.876;23.474;2023-03-21T12:33:27;17.30;47.00
19389;DHT22;9830;41.876;23.474;2023-03-21T12:41:19;17.40;47.80
19389;DHT22;9830;41.876;23.474;2023-03-21T12:43:54;17.50;47.00
19389;DHT22;9830;41.876;23.474;2023-03-21T12:46:57;18.20;44.70
19389;DHT22;9830;41.876;23.474;2023-03-21T12:51:58;18.40;44.00
19389;DHT22;9830;41.876;23.474;2023-03-21T12:54:40;18.20;44.70
19389;DHT22;9830;41.876;23.474;2023-03-21T12:57:08;17.80;45.50
19389;DHT22;9830;41.876;23.474;2023-03-21T13:00:02;17.70;46.50
19389;DHT22;9830;41.876;23.474;2023-03-21T13:05:38;17.40;47.20
19389;DHT22;9830;41.876;23.474;2023-03-21T13:08:36;17.20;47.60
19389;DHT22;9830;41.876;23.474;2023-03-21T13:11:04;17.30;47.40
19389;DHT22;9830;41.876;23.474;2023-03-21T13:24:24;16.70;47.30
19389;DHT22;9830;41.876;23.474;2023-03-21T13:32:45;17.00;46.90
19389;DHT22;9830;41.876;23.474;2023-03-21T13:35:15;17.20;46.20
19389;DHT22;9830;41.876;23.474;2023-03-21T13:37:49;17.30;46.60
19389;DHT22;9830;41.876;23.474;2023-03-21T13:40:37;17.30;44.30
19389;DHT22;9830;41.876;23.474;2023-03-21T13:46:12;17.10;45.80
19389;DHT22;9830;41.876;23.474;2023-03-21T13:56:50;17.50;44.40
19389;DHT22;9830;41.876;23.474;2023-03-21T14:05:02;17.20;45.10
19389;DHT22;9830;41.876;23.474;2023-03-21T14:07:40;17.40;43.30
19389;DHT22;9830;41.876;23.474;2023-03-21T14:10:21;17.10;43.30
19389;DHT22;9830;41.876;23.474;2023-03-21T14:12:48;16.90;43.80
19389;DHT22;9830;41.876;23.474;2023-03-21T14:15:23;16.90;44.30
19389;DHT22;9830;41.876;23.474;2023-03-21T14:17:53;16.90;44.00
19389;DHT22;9830;41.876;23.474;2023-03-21T14:20:23;16.90;44.10
19389;DHT22;9830;41.876;23.474;2023-03-21T14:22:49;16.70;44.10
19389;DHT22;9830;41.876;23.474;2023-03-21T14:25:18;16.50;45.10
19389;DHT22;9830;41.876;23.474;2023-03-21T14:27:52;16.30;45.80
19389;DHT22;9830;41.876;23.474;2023-03-21T14:32:46;16.30;45.40
19389;DHT22;9830;41.876;23.474;2023-03-21T14:35:13;16.30;46.00
19389;DHT22;9830;41.876;23.474;2023-03-21T14:37:41;16.20;47.30
19389;DHT22;9830;41.876;23.474;2023-03-21T14:40:23;16.20;47.40
19389;DHT22;9830;41.876;23.474;2023-03-21T14:42:52;16.00;47.30
19389;DHT22;9830;41.876;23.474;2023-03-21T14:45:28;16.00;47.20
19389;DHT22;9830;41.876;23.474;2023-03-21T14:48:15;15.90;50.00
19389;DHT22;9830;41.876;23.474;2023-03-21T14:53:30;15.30;59.80
19389;DHT22;9830;41.876;23.474;2023-03-21T14:56:05;15.00;61.60
19389;DHT22;9830;41.876;23.474;2023-03-21T14:58:32;14.70;61.20
19389;DHT22;9830;41.876;23.474;2023-03-21T15:01:04;14.60;62.80
19389;DHT22;9830;41.876;23.474;2023-03-21T15:03:30;14.40;65.00
19389;DHT22;9830;41.876;23.474;2023-03-21T15:05:58;14.30;65.70
19389;DHT22;9830;41.876;23.474;2023-03-21T15:08:26;14.20;65.70
19389;DHT22;9830;41.876;23.474;2023-03-21T15:13:22;14.10;69.20
19389;DHT22;9830;41.876;23.474;2023-03-21T15:15:50;13.90;69.70
19389;DHT22;9830;41.876;23.474;2023-03-21T15:18:28;13.80;72.60
19389;DHT22;9830;41.876;23.474;2023-03-21T15:20:56;13.70;74.10
19389;DHT22;9830;41.876;23.474;2023-03-21T15:23:31;13.60;75.90
19389;DHT22;9830;41.876;23.474;2023-03-21T15:26:02;13.50;77.90
19389;DHT22;9830;41.876;23.474;2023-03-21T15:28:32;13.40;79.60
19389;DHT22;9830;41.876;23.474;2023-03-21T15:31:04;13.30;80.90
19389;DHT22;9830;41.876;23.474;2023-03-21T15:33:32;13.20;83.50
19389;DHT22;9830;41.876;23.474;2023-03-21T15:36:00;13.10;82.30
19389;DHT22;9830;41.876;23.474;2023-03-21T15:38:36;13.00;84.40
19389;DHT22;9830;41.876;23.474;2023-03-21T15:46:49;12.60;93.70
19389;DHT22;9830;41.876;23.474;2023-03-21T15:49:28;12.50;93.00
19389;DHT22;9830;41.876;23.474;2023-03-21T15:52:10;12.40;90.30
19389;DHT22;9830;41.876;23.474;2023-03-21T15:54:46;12.30;92.90
19389;DHT22;9830;41.876;23.474;2023-03-21T15:57:34;12.20;91.90
19389;DHT22;9830;41.876;23.474;2023-03-21T16:02:44;11.90;92.10
19389;DHT22;9830;41.876;23.474;2023-03-21T16:05:28;11.90;91.60
19389;DHT22;9830;41.876;23.474;2023-03-21T16:08:19;11.90;92.60
19389;DHT22;9830;41.876;23.474;2023-03-21T16:10:45;11.80;93.90
19389;DHT22;9830;41.876;23.474;2023-03-21T16:13:13;11.70;96.00
19389;DHT22;9830;41.876;23.474;2023-03-21T16:15:39;11.50;99.00
19389;DHT22;9830;41.876;23.474;2023-03-21T16:18:06;11.40;99.90
19389;DHT22;9830;41.876;23.474;2023-03-21T16:20:39;11.30;99.90
19389;DHT22;9830;41.876;23.474;2023-03-21T16:23:05;11.30;99.90
19389;DHT22;9830;41.876;23.474;2023-03-21T16:25:32;11.20;99.90
19389;DHT22;9830;41.876;23.474;2023-03-21T16:27:58;11.20;99.90
19389;DHT22;9830;41.876;23.474;2023-03-21T16:30:24;11.20;99.90
19389;DHT22;9830;41.876;23.474;2023-03-21T16:32:50;11.20;99.90
19389;DHT22;9830;41.876;23.474;2023-03-21T16:35:17;11.10;99.90
19389;DHT22;9830;41.876;23.474;2023-03-21T16:37:42;11.10;99.90
19389;DHT22;9830;41.876;23.474;2023-03-21T16:40:30;11.10;99.90
19389;DHT22;9830;41.876;23.474;2023-03-21T16:42:57;11.10;99.90
19389;DHT22;9830;41.876;23.474;2023-03-21T16:45:22;11.10;99.80
19389;DHT22;9830;41.876;23.474;2023-03-21T16:47:48;11.10;99.90
19389;DHT22;9830;41.876;23.474;2023-03-21T16:50:27;11.00;99.90
19389;DHT22;9830;41.876;23.474;2023-03-21T16:52:55;10.90;99.90
19389;DHT22;9830;41.876;23.474;2023-03-21T16:55:22;10.80;99.90
19389;DHT22;9830;41.876;23.474;2023-03-21T16:57:49;10.80;99.90
19389;DHT22;9830;41.876;23.474;2023-03-21T17:00:19;10.80;99.90
19389;DHT22;9830;41.876;23.474;2023-03-21T17:02:46;10.80;99.90
19389;DHT22;9830;41.876;23.474;2023-03-21T17:05:13;10.80;99.90
19389;DHT22;9830;41.876;23.474;2023-03-21T17:07:39;10.70;99.90
19389;DHT22;9830;41.876;23.474;2023-03-21T17:10:27;10.70;99.90
19389;DHT22;9830;41.876;23.474;2023-03-21T17:12:53;10.60;99.90
19389;DHT22;9830;41.876;23.474;2023-03-21T17:15:20;10.60;99.90
19389;DHT22;9830;41.876;23.474;2023-03-21T17:17:46;10.60;99.90
19389;DHT22;9830;41.876;23.474;2023-03-21T17:20:26;10.60;99.90
19389;DHT22;9830;41.876;23.474;2023-03-21T17:22:54;10.60;99.90
19389;DHT22;9830;41.876;23.474;2023-03-21T17:25:20;10.60;99.90
19389;DHT22;9830;41.876;23.474;2023-03-21T17:27:46;10.50;99.90
19389;DHT22;9830;41.876;23.474;2023-03-21T17:32:50;10.50;99.90
19389;DHT22;9830;41.876;23.474;2023-03-21T17:35:16;10.40;99.90
19389;DHT22;9830;41.876;23.474;2023-03-21T17:37:43;10.40;99.90
19389;DHT22;9830;41.876;23.474;2023-03-21T17:40:26;10.30;99.90
19389;DHT22;9830;41.876;23.474;2023-03-21T17:42:52;10.30;99.90
19389;DHT22;9830;41.876;23.474;2023-03-21T17:45:19;10.30;99.90
19389;DHT22;9830;41.876;23.474;2023-03-21T17:47:44;10.20;99.90
19389;DHT22;9830;41.876;23.474;2023-03-21T17:50:22;10.10;99.90
19389;DHT22;9830;41.876;23.474;2023-03-21T17:52:49;10.00;99.90
19389;DHT22;9830;41.876;23.474;2023-03-21T17:55:16;9.90;99.90
19389;DHT22;9830;41.876;23.474;2023-03-21T17:57:46;9.90;99.90
19389;DHT22;9830;41.876;23.474;2023-03-21T18:00:21;10.00;99.90
19389;DHT22;9830;41.876;23.474;2023-03-21T18:02:47;10.00;99.90
19389;DHT22;9830;41.876;23.474;2023-03-21T18:05:13;10.00;99.90
19389;DHT22;9830;41.876;23.474;2023-03-21T18:07:40;10.00;99.90